sensor_id;sensor_type;location;lat;lon;timestamp;pressure;altitude;pressure_sealevel;temperature;humidity
26865;BME280;40618;51.166;10.322;2023-03-22T00:00:07;97084.94;;;7.09;80.73
26865;BME280;40618;51.166;10.322;2023-03-22T00:02:37;97081.47;;;7.10;80.33
26865;BME280;40618;51.166;10.322;2023-03-22T00:05:03;97078.09;;;7.08;80.02
26865;BME280;40618;51.166;10.322;2023-03-22T00:07:29;97071.31;;;7.04;80.03
26865;BME280;40618;51.166;10.322;2023-03-22T00:09:55;97069.59;;;7.03;79.98
26865;BME280;40618;51.166;10.322;2023-03-22T00:12:21;97067.03;;;7.03;80.27
26865;BME280;40618;51.166;10.322;2023-03-22T00:14:47;97071.41;;;7.00;80.61
26865;BME280;40618;51.166;10.322;2023-03-22T00:17:13;97064.53;;;7.00;80.69
26865;BME280;40618;51.166;10.322;2023-03-22T00:19:39;97059.44;;;6.99;80.20
26865;BME280;40618;51.166;10.322;2023-03-22T00:22:06;97058.59;;;6.97;80.30
26865;BME280;40618;51.166;10.322;2023-03-22T00:24:32;97061.22;;;6.95;80.32
26865;BME280;40618;51.166;10.322;2023-03-22T00:26:59;97054.50;;;6.88;80.06
26865;BME280;40618;51.166;10.322;2023-03-22T00:29:25;97049.41;;;6.85;80.19
26865;BME280;40618;51.166;10.322;2023-03-22T00:31:50;97057.13;;;6.85;80.58
26865;BME280;40618;51.166;10.322;2023-03-22T00:34:18;97055.47;;;6.84;80.33
26865;BME280;40618;51.166;10.322;2023-03-22T00:36:44;97060.59;;;6.84;80.53
26865;BME280;40618;51.166;10.322;2023-03-22T00:39:09;97050.34;;;6.81;80.69
26865;BME280;40618;51.166;10.322;2023-03-22T00:41:35;97042.66;;;6.79;80.25
26865;BME280;40618;51.166;10.322;2023-03-22T00:44:01;97047.84;;;6.77;80.75
26865;BME280;40618;51.166;10.322;2023-03-22T00:46:26;97041.81;;;6.80;80.50
26865;BME280;40618;51.166;10.322;2023-03-22T00:48:52;97045.16;;;6.84;80.72
26865;BME280;40618;51.166;10.322;2023-03-22T00:51:17;97042.59;;;6.84;80.48
26865;BME280;40618;51.166;10.322;2023-03-22T00:53:43;97037.44;;;6.84;80.67
26865;BME280;40618;51.166;10.322;2023-03-22T00:56:11;97038.31;;;6.83;80.72
26865;BME280;40618;51.166;10.322;2023-03-22T00:58:38;97021.22;;;6.80;80.44
26865;BME280;40618;51.166;10.322;2023-03-22T01:01:03;97026.44;;;6.77;80.89
26865;BME280;40618;51.166;10.322;2023-03-22T01:03:29;97029.91;;;6.74;80.53
26865;BME280;40618;51.166;10.322;2023-03-22T01:05:55;97027.41;;;6.71;80.53
26865;BME280;40618;51.166;10.322;2023-03-22T01:08:21;97032.59;;;6.68;80.66
26865;BME280;40618;51.166;10.322;2023-03-22T01:10:48;97031.84;;;6.65;80.58
26865;BME280;40618;51.166;10.322;2023-03-22T01:13:15;97030.97;;;6.64;80.38
26865;BME280;40618;51.166;10.322;2023-03-22T01:15:41;97031.06;;;6.61;80.64
26865;BME280;40618;51.166;10.322;2023-03-22T01:18:07;97019.94;;;6.60;80.76
26865;BME280;40618;51.166;10.322;2023-03-22T01:20:33;97022.53;;;6.59;80.69
26865;BME280;40618;51.166;10.322;2023-03-22T01:22:59;97027.69;;;6.59;80.54
26865;BME280;40618;51.166;10.322;2023-03-22T01:25:24;97024.28;;;6.57;80.73
26865;BME280;40618;51.166;10.322;2023-03-22T01:27:50;97016.53;;;6.58;81.01
26865;BME280;40618;51.166;10.322;2023-03-22T01:30:16;97008.81;;;6.58;80.73
26865;BME280;40618;51.166;10.322;2023-03-22T01:32:42;97018.22;;;6.59;80.62
26865;BME280;40618;51.166;10.322;2023-03-22T01:35:08;97011.34;;;6.60;80.48
26865;BME280;40618;51.166;10.322;2023-03-22T01:37:34;97017.34;;;6.60;81.13
26865;BME280;40618;51.166;10.322;2023-03-22T01:40:00;97019.06;;;6.62;81.09
26865;BME280;40618;51.166;10.322;2023-03-22T01:42:26;97012.09;;;6.65;80.69
26865;BME280;40618;51.166;10.322;2023-03-22T01:45:28;97008.72;;;6.63;80.96
26865;BME280;40618;51.166;10.322;2023-03-22T01:48:01;97003.53;;;6.65;80.97
26865;BME280;40618;51.166;10.322;2023-03-22T01:50:36;96998.44;;;6.63;80.62
26865;BME280;40618;51.166;10.322;2023-03-22T01:53:07;96998.47;;;6.60;80.88
26865;BME280;40618;51.166;10.322;2023-03-22T01:55:36;97000.19;;;6.61;80.56
26865;BME280;40618;51.166;10.322;2023-03-22T01:58:03;96989.06;;;6.60;81.10
26865;BME280;40618;51.166;10.322;2023-03-22T02:00:29;96993.34;;;6.60;80.84
26865;BME280;40618;51.166;10.322;2023-03-22T02:02:55;96989.97;;;6.58;80.67
26865;BME280;40618;51.166;10.322;2023-03-22T02:05:21;96987.44;;;6.56;80.94
26865;BME280;40618;51.166;10.322;2023-03-22T02:07:47;96992.63;;;6.53;80.89
26865;BME280;40618;51.166;10.322;2023-03-22T02:10:19;96989.22;;;6.53;80.80
26865;BME280;40618;51.166;10.322;2023-03-22T02:13:18;96996.09;;;6.52;80.52
26865;BME280;40618;51.166;10.322;2023-03-22T02:16:06;96997.72;;;6.56;81.52
26865;BME280;40618;51.166;10.322;2023-03-22T02:33:44;96989.78;;;6.67;80.80
26865;BME280;40618;51.166;10.322;2023-03-22T02:45:12;96978.66;;;6.65;80.95
26865;BME280;40618;51.166;10.322;2023-03-22T02:48:10;96975.22;;;6.66;81.06
26865;BME280;40618;51.166;10.322;2023-03-22T02:50:56;96973.50;;;6.65;81.04
26865;BME280;40618;51.166;10.322;2023-03-22T02:53:36;96973.53;;;6.64;81.42
26865;BME280;40618;51.166;10.322;2023-03-22T02:56:13;96966.69;;;6.63;80.99
26865;BME280;40618;51.166;10.322;2023-03-22T02:58:48;96967.56;;;6.63;81.56
26865;BME280;40618;51.166;10.322;2023-03-22T03:01:34;96961.59;;;6.61;80.94
26865;BME280;40618;51.166;10.322;2023-03-22T03:04:15;96963.38;;;6.57;81.22
26865;BME280;40618;51.166;10.322;2023-03-22T03:06:46;96961.72;;;6.56;81.46
26865;BME280;40618;51.166;10.322;2023-03-22T03:09:16;96954.00;;;6.56;81.07
26865;BME280;40618;51.166;10.322;2023-03-22T03:11:49;96952.19;;;6.60;81.15
26865;BME280;40618;51.166;10.322;2023-03-22T03:14:25;96960.72;;;6.62;81.52
26865;BME280;40618;51.166;10.322;2023-03-22T03:19:47;96956.44;;;6.61;81.42
26865;BME280;40618;51.166;10.322;2023-03-22T03:23:05;96948.72;;;6.61;81.17
26865;BME280;40618;51.166;10.322;2023-03-22T03:28:43;96955.56;;;6.62;80.93
26865;BME280;40618;51.166;10.322;2023-03-22T03:34:48;96959.94;;;6.58;81.54
26865;BME280;40618;51.166;10.322;2023-03-22T03:37:26;96955.66;;;6.57;81.78
26865;BME280;40618;51.166;10.322;2023-03-22T03:40:11;96958.28;;;6.56;81.50
26865;BME280;40618;51.166;10.322;2023-03-22T03:42:44;96958.34;;;6.53;81.43
26865;BME280;40618;51.166;10.322;2023-03-22T03:45:14;96956.59;;;6.53;81.36
26865;BME280;40618;51.166;10.322;2023-03-22T03:47:43;96959.22;;;6.52;81.36
26865;BME280;40618;51.166;10.322;2023-03-22T03:50:14;96954.94;;;6.52;81.07
26865;BME280;40618;51.166;10.322;2023-03-22T03:52:41;96947.22;;;6.52;81.41
26865;BME280;40618;51.166;10.322;2023-03-22T03:55:07;96952.31;;;6.54;81.17
26865;BME280;40618;51.166;10.322;2023-03-22T03:57:33;96955.78;;;6.53;81.70
26865;BME280;40618;51.166;10.322;2023-03-22T03:59:59;96960.03;;;6.54;81.35
26865;BME280;40618;51.166;10.322;2023-03-22T04:02:24;96960.13;;;6.49;81.79
26865;BME280;40618;51.166;10.322;2023-03-22T04:04:50;96950.69;;;6.50;81.54
26865;BME280;40618;51.166;10.322;2023-03-22T04:07:15;96956.69;;;6.50;81.40
26865;BME280;40618;51.166;10.322;2023-03-22T04:09:41;96951.56;;;6.49;81.52
26865;BME280;40618;51.166;10.322;2023-03-22T04:12:07;96949.06;;;6.46;81.78
26865;BME280;40618;51.166;10.322;2023-03-22T04:14:34;96946.59;;;6.41;81.33
26865;BME280;40618;51.166;10.322;2023-03-22T04:17:00;96950.03;;;6.41;81.66
26865;BME280;40618;51.166;10.322;2023-03-22T04:19:26;96946.66;;;6.38;81.23
26865;BME280;40618;51.166;10.322;2023-03-22T04:21:52;96939.03;;;6.35;81.58
26865;BME280;40618;51.166;10.322;2023-03-22T04:24:19;96939.13;;;6.30;81.28
26865;BME280;40618;51.166;10.322;2023-03-22T04:26:46;96944.28;;;6.30;81.26
26865;BME280;40618;51.166;10.322;2023-03-22T04:29:12;96934.00;;;6.29;81.43
26865;BME280;40618;51.166;10.322;2023-03-22T04:31:37;96931.41;;;6.29;81.54
26865;BME280;40618;51.166;10.322;2023-03-22T04:34:04;96922.00;;;6.29;81.64
26865;BME280;40618;51.166;10.322;2023-03-22T04:36:32;96926.31;;;6.27;81.25
26865;BME280;40618;51.166;10.322;2023-03-22T04:39:06;96927.19;;;6.26;81.57
26865;BME280;40618;51.166;10.322;2023-03-22T04:41:35;96928.97;;;6.24;81.24
26865;BME280;40618;51.166;10.322;2023-03-22T04:44:05;96920.41;;;6.22;81.59
26865;BME280;40618;51.166;10.322;2023-03-22T04:46:34;96916.22;;;6.19;81.08
26865;BME280;40618;51.166;10.322;2023-03-22T04:49:00;96912.81;;;6.17;81.88
26865;BME280;40618;51.166;10.322;2023-03-22T04:51:26;96914.59;;;6.15;81.69
26865;BME280;40618;51.166;10.322;2023-03-22T04:53:53;96913.81;;;6.12;81.39
26865;BME280;40618;51.166;10.322;2023-03-22T04:56:19;96918.94;;;6.12;81.36
26865;BME280;40618;51.166;10.322;2023-03-22T04:58:45;96924.00;;;6.15;81.42
26865;BME280;40618;51.166;10.322;2023-03-22T05:01:12;96915.44;;;6.16;81.39
26865;BME280;40618;51.166;10.322;2023-03-22T05:03:39;96911.94;;;6.18;81.71
26865;BME280;40618;51.166;10.322;2023-03-22T05:06:08;96911.06;;;6.19;81.71
26865;BME280;40618;51.166;10.322;2023-03-22T05:08:34;96912.75;;;6.20;81.97
26865;BME280;40618;51.166;10.322;2023-03-22T05:11:08;96915.31;;;6.20;81.91
26865;BME280;40618;51.166;10.322;2023-03-22T05:13:38;96910.13;;;6.22;81.92
26865;BME280;40618;51.166;10.322;2023-03-22T05:16:05;96909.22;;;6.24;81.73
26865;BME280;40618;51.166;10.322;2023-03-22T05:18:31;96908.41;;;6.24;81.74
26865;BME280;40618;51.166;10.322;2023-03-22T05:20:58;96910.09;;;6.25;81.67
26865;BME280;40618;51.166;10.322;2023-03-22T05:23:27;96909.19;;;6.26;81.68
26865;BME280;40618;51.166;10.322;2023-03-22T05:25:54;96910.88;;;6.27;81.94
26865;BME280;40618;51.166;10.322;2023-03-22T05:28:22;96902.38;;;6.25;81.94
26865;BME280;40618;51.166;10.322;2023-03-22T05:30:49;96900.66;;;6.25;81.90
26865;BME280;40618;51.166;10.322;2023-03-22T05:33:16;96906.63;;;6.26;81.57
26865;BME280;40618;51.166;10.322;2023-03-22T05:35:46;96899.81;;;6.25;81.64
26865;BME280;40618;51.166;10.322;2023-03-22T05:38:11;96901.50;;;6.24;81.83
26865;BME280;40618;51.166;10.322;2023-03-22T05:40:37;96898.16;;;6.22;81.87
26865;BME280;40618;51.166;10.322;2023-03-22T05:43:03;96907.56;;;6.22;81.72
26865;BME280;40618;51.166;10.322;2023-03-22T05:45:28;96902.47;;;6.20;81.70
26865;BME280;40618;51.166;10.322;2023-03-22T05:47:55;96924.69;;;6.23;81.92
26865;BME280;40618;51.166;10.322;2023-03-22T05:50:22;96915.28;;;6.23;81.88
26865;BME280;40618;51.166;10.322;2023-03-22T05:52:48;96912.72;;;6.22;81.44
26865;BME280;40618;51.166;10.322;2023-03-22T05:55:16;96912.66;;;6.25;82.22
26865;BME280;40618;51.166;10.322;2023-03-22T05:57:44;96910.94;;;6.25;82.11
26865;BME280;40618;51.166;10.322;2023-03-22T06:00:13;96908.41;;;6.24;81.68
26865;BME280;40618;51.166;10.322;2023-03-22T06:02:41;96910.13;;;6.23;81.93
26865;BME280;40618;51.166;10.322;2023-03-22T06:05:08;96913.50;;;6.25;82.31
26865;BME280;40618;51.166;10.322;2023-03-22T06:07:36;96908.31;;;6.27;81.83
26865;BME280;40618;51.166;10.322;2023-03-22T06:10:03;96913.47;;;6.27;81.78
26865;BME280;40618;51.166;10.322;2023-03-22T06:12:30;96911.72;;;6.29;82.44
26865;BME280;40618;51.166;10.322;2023-03-22T06:14:56;96912.50;;;6.31;82.39
26865;BME280;40618;51.166;10.322;2023-03-22T06:17:21;96922.81;;;6.31;82.31
26865;BME280;40618;51.166;10.322;2023-03-22T06:19:48;96921.97;;;6.31;82.17
26865;BME280;40618;51.166;10.322;2023-03-22T06:22:14;96922.81;;;6.31;82.43
26865;BME280;40618;51.166;10.322;2023-03-22T06:24:40;96921.88;;;6.34;82.14
26865;BME280;40618;51.166;10.322;2023-03-22T06:27:07;96916.69;;;6.37;82.68
26865;BME280;40618;51.166;10.322;2023-03-22T06:29:33;96928.59;;;6.41;82.32
26865;BME280;40618;51.166;10.322;2023-03-22T06:31:59;96921.69;;;6.43;82.17
26865;BME280;40618;51.166;10.322;2023-03-22T06:34:25;96928.53;;;6.44;82.10
26865;BME280;40618;51.166;10.322;2023-03-22T06:36:51;96928.50;;;6.46;82.07
26865;BME280;40618;51.166;10.322;2023-03-22T06:39:18;96930.16;;;6.48;82.88
26865;BME280;40618;51.166;10.322;2023-03-22T06:41:44;96929.25;;;6.49;82.39
26865;BME280;40618;51.166;10.322;2023-03-22T06:44:10;96935.22;;;6.51;82.49
26865;BME280;40618;51.166;10.322;2023-03-22T06:46:35;96933.44;;;6.55;82.15
26865;BME280;40618;51.166;10.322;2023-03-22T06:49:01;96930.84;;;6.56;82.24
26865;BME280;40618;51.166;10.322;2023-03-22T06:51:27;96929.06;;;6.58;82.56
26865;BME280;40618;51.166;10.322;2023-03-22T06:53:53;96928.16;;;6.61;82.62
26865;BME280;40618;51.166;10.322;2023-03-22T06:56:18;96931.53;;;6.63;82.75
26865;BME280;40618;51.166;10.322;2023-03-22T06:58:44;96931.53;;;6.63;82.98
26865;BME280;40618;51.166;10.322;2023-03-22T07:01:10;96937.44;;;6.67;82.88
26865;BME280;40618;51.166;10.322;2023-03-22T07:03:35;96930.53;;;6.70;83.19
26865;BME280;40618;51.166;10.322;2023-03-22T07:06:03;96934.75;;;6.73;82.48
26865;BME280;40618;51.166;10.322;2023-03-22T07:08:31;96928.69;;;6.75;83.15
26865;BME280;40618;51.166;10.322;2023-03-22T07:10:57;96922.63;;;6.76;82.37
26865;BME280;40618;51.166;10.322;2023-03-22T07:13:23;96920.81;;;6.82;83.18
26865;BME280;40618;51.166;10.322;2023-03-22T07:15:48;96918.97;;;6.87;82.53
26865;BME280;40618;51.166;10.322;2023-03-22T07:18:14;96921.44;;;6.91;83.21
26865;BME280;40618;51.166;10.322;2023-03-22T07:20:39;96918.75;;;6.96;82.58
26865;BME280;40618;51.166;10.322;2023-03-22T07:23:07;96911.78;;;7.01;82.63
26865;BME280;40618;51.166;10.322;2023-03-22T07:25:34;96917.69;;;7.05;82.97
26865;BME280;40618;51.166;10.322;2023-03-22T07:28:00;96910.78;;;7.07;83.03
26865;BME280;40618;51.166;10.322;2023-03-22T07:30:26;96914.16;;;7.09;82.87
26865;BME280;40618;51.166;10.322;2023-03-22T07:32:51;96911.56;;;7.09;82.42
26865;BME280;40618;51.166;10.322;2023-03-22T07:35:20;96910.66;;;7.11;82.58
26865;BME280;40618;51.166;10.322;2023-03-22T07:37:46;96908.91;;;7.14;83.14
26865;BME280;40618;51.166;10.322;2023-03-22T07:40:13;96914.75;;;7.19;82.61
26865;BME280;40618;51.166;10.322;2023-03-22T07:42:38;96908.69;;;7.21;82.59
26865;BME280;40618;51.166;10.322;2023-03-22T07:45:04;96912.00;;;7.26;82.63
26865;BME280;40618;51.166;10.322;2023-03-22T07:47:30;96903.28;;;7.32;82.57
26865;BME280;40618;51.166;10.322;2023-03-22T07:49:56;96895.44;;;7.37;82.97
26865;BME280;40618;51.166;10.322;2023-03-22T07:52:22;96887.53;;;7.43;83.04
26865;BME280;40618;51.166;10.322;2023-03-22T07:54:47;96885.69;;;7.48;82.64
26865;BME280;40618;51.166;10.322;2023-03-22T07:57:13;96878.69;;;7.53;82.60
26865;BME280;40618;51.166;10.322;2023-03-22T07:59:39;96878.41;;;7.62;83.35
26865;BME280;40618;51.166;10.322;2023-03-22T08:02:05;96873.88;;;7.71;82.70
26865;BME280;40618;51.166;10.322;2023-03-22T08:04:30;96869.41;;;7.77;83.36
26865;BME280;40618;51.166;10.322;2023-03-22T08:06:56;96878.69;;;7.85;83.31
26865;BME280;40618;51.166;10.322;2023-03-22T08:09:25;96867.38;;;7.89;82.55
26865;BME280;40618;51.166;10.322;2023-03-22T08:11:50;96873.34;;;7.91;82.88
26865;BME280;40618;51.166;10.322;2023-03-22T08:14:16;96874.19;;;7.91;82.57
26865;BME280;40618;51.166;10.322;2023-03-22T08:16:42;96864.63;;;7.95;82.23
26865;BME280;40618;51.166;10.322;2023-03-22T08:19:11;96868.84;;;7.97;82.93
26865;BME280;40618;51.166;10.322;2023-03-22T08:21:37;96861.84;;;8.03;82.84
26865;BME280;40618;51.166;10.322;2023-03-22T08:24:03;96858.06;;;8.13;83.05
26865;BME280;40618;51.166;10.322;2023-03-22T08:26:29;96862.91;;;8.24;82.06
26865;BME280;40618;51.166;10.322;2023-03-22T08:28:55;96851.53;;;8.31;82.59
26865;BME280;40618;51.166;10.322;2023-03-22T08:31:21;96857.25;;;8.41;83.04
26865;BME280;40618;51.166;10.322;2023-03-22T08:33:49;96856.03;;;8.53;82.79
26865;BME280;40618;51.166;10.322;2023-03-22T08:36:17;96851.59;;;8.58;83.32
26865;BME280;40618;51.166;10.322;2023-03-22T08:38:44;96846.25;;;8.64;83.16
26865;BME280;40618;51.166;10.322;2023-03-22T08:41:11;96849.41;;;8.72;82.08
26865;BME280;40618;51.166;10.322;2023-03-22T08:43:37;96851.94;;;8.74;82.56
26865;BME280;40618;51.166;10.322;2023-03-22T08:46:03;96842.41;;;8.76;82.28
26865;BME280;40618;51.166;10.322;2023-03-22T08:48:29;96841.34;;;8.81;82.79
26865;BME280;40618;51.166;10.322;2023-03-22T08:50:56;96842.56;;;8.98;83.13
26865;BME280;40618;51.166;10.322;2023-03-22T08:53:22;96844.03;;;9.05;82.17
26865;BME280;40618;51.166;10.322;2023-03-22T08:55:48;96831.47;;;9.20;82.64
26865;BME280;40618;51.166;10.322;2023-03-22T08:58:14;96826.69;;;9.34;82.48
26865;BME280;40618;51.166;10.322;2023-03-22T09:00:43;96837.25;;;9.52;82.37
26865;BME280;40618;51.166;10.322;2023-03-22T09:03:08;96838.78;;;9.57;82.55
26865;BME280;40618;51.166;10.322;2023-03-22T09:05:34;96828.38;;;9.59;82.17
26865;BME280;40618;51.166;10.322;2023-03-22T09:07:59;96814.63;;;9.58;81.39
26865;BME280;40618;51.166;10.322;2023-03-22T09:10:27;96823.09;;;9.62;82.10
26865;BME280;40618;51.166;10.322;2023-03-22T09:12:53;96808.94;;;9.72;81.45
26865;BME280;40618;51.166;10.322;2023-03-22T09:15:20;96815.38;;;9.84;81.92
26865;BME280;40618;51.166;10.322;2023-03-22T09:17:45;96796.00;;;9.96;81.43
26865;BME280;40618;51.166;10.322;2023-03-22T09:20:11;96818.97;;;10.04;81.19
26865;BME280;40618;51.166;10.322;2023-03-22T09:22:37;96804.28;;;10.04;81.13
26865;BME280;40618;51.166;10.322;2023-03-22T09:25:03;96806.09;;;10.02;81.32
26865;BME280;40618;51.166;10.322;2023-03-22T09:27:29;96811.16;;;10.05;80.89
26865;BME280;40618;51.166;10.322;2023-03-22T09:29:55;96798.16;;;10.07;80.86
26865;BME280;40618;51.166;10.322;2023-03-22T09:32:21;96798.78;;;10.13;80.84
26865;BME280;40618;51.166;10.322;2023-03-22T09:34:46;96785.22;;;10.29;80.83
26865;BME280;40618;51.166;10.322;2023-03-22T09:37:12;96791.25;;;10.29;80.68
26865;BME280;40618;51.166;10.322;2023-03-22T09:39:40;96791.41;;;10.25;80.21
26865;BME280;40618;51.166;10.322;2023-03-22T09:42:35;96792.69;;;10.14;80.10
26865;BME280;40618;51.166;10.322;2023-03-22T09:45:12;96786.59;;;10.15;80.15
26865;BME280;40618;51.166;10.322;2023-03-22T09:47:50;96798.56;;;10.18;79.84
26865;BME280;40618;51.166;10.322;2023-03-22T09:50:24;96790.88;;;10.16;79.88
26865;BME280;40618;51.166;10.322;2023-03-22T09:52:53;96774.59;;;10.14;79.69
26865;BME280;40618;51.166;10.322;2023-03-22T09:58:30;96796.50;;;10.28;79.33
26865;BME280;40618;51.166;10.322;2023-03-22T10:06:48;96800.56;;;10.35;79.06
26865;BME280;40618;51.166;10.322;2023-03-22T10:09:34;96786.25;;;10.47;78.57
26865;BME280;40618;51.166;10.322;2023-03-22T10:12:16;96793.84;;;10.52;79.12
26865;BME280;40618;51.166;10.322;2023-03-22T10:14:49;96793.56;;;10.59;78.95
26865;BME280;40618;51.166;10.322;2023-03-22T10:17:24;96772.50;;;10.67;78.80
26865;BME280;40618;51.166;10.322;2023-03-22T10:19:57;96766.75;;;10.60;78.30
26865;BME280;40618;51.166;10.322;2023-03-22T10:22:29;96766.56;;;10.65;78.24
26865;BME280;40618;51.166;10.322;2023-03-22T10:25:00;96748.25;;;10.70;77.88
26865;BME280;40618;51.166;10.322;2023-03-22T10:27:28;96748.31;;;10.68;78.04
26865;BME280;40618;51.166;10.322;2023-03-22T10:30:22;96739.22;;;10.78;77.95
26865;BME280;40618;51.166;10.322;2023-03-22T10:32:57;96745.72;;;10.89;77.42
26865;BME280;40618;51.166;10.322;2023-03-22T10:35:29;96749.09;;;10.91;77.76
26865;BME280;40618;51.166;10.322;2023-03-22T10:37:58;96740.41;;;10.92;77.33
26865;BME280;40618;51.166;10.322;2023-03-22T10:40:31;96747.41;;;10.90;77.01
26865;BME280;40618;51.166;10.322;2023-03-22T10:43:02;96735.44;;;10.87;77.49
26865;BME280;40618;51.166;10.322;2023-03-22T10:45:33;96743.91;;;10.91;77.30
26865;BME280;40618;51.166;10.322;2023-03-22T10:48:06;96746.31;;;10.95;76.46
26865;BME280;40618;51.166;10.322;2023-03-22T10:50:42;96747.06;;;10.97;76.18
26865;BME280;40618;51.166;10.322;2023-03-22T10:53:34;96737.94;;;10.89;75.84
26865;BME280;40618;51.166;10.322;2023-03-22T10:56:02;96741.44;;;10.88;76.23
26865;BME280;40618;51.166;10.322;2023-03-22T10:58:30;96739.00;;;10.84;76.43
26865;BME280;40618;51.166;10.322;2023-03-22T11:01:12;96751.69;;;10.91;76.35
26865;BME280;40618;51.166;10.322;2023-03-22T11:03:46;96743.72;;;10.95;76.45
26865;BME280;40618;51.166;10.322;2023-03-22T11:06:16;96738.13;;;11.05;76.52
26865;BME280;40618;51.166;10.322;2023-03-22T11:08:49;96731.84;;;11.10;76.21
26865;BME280;40618;51.166;10.322;2023-03-22T11:11:28;96734.78;;;11.22;76.32
26865;BME280;40618;51.166;10.322;2023-03-22T11:13:59;96734.47;;;11.29;75.28
26865;BME280;40618;51.166;10.322;2023-03-22T11:16:46;96733.81;;;11.24;75.05
26865;BME280;40618;51.166;10.322;2023-03-22T11:19:36;96725.22;;;11.24;75.78
26865;BME280;40618;51.166;10.322;2023-03-22T11:24:49;96712.69;;;11.33;74.60
26865;BME280;40618;51.166;10.322;2023-03-22T11:27:23;96715.59;;;11.26;74.94
26865;BME280;40618;51.166;10.322;2023-03-22T11:32:44;96724.59;;;11.38;74.38
26865;BME280;40618;51.166;10.322;2023-03-22T11:35:23;96744.06;;;11.46;74.39
26865;BME280;40618;51.166;10.322;2023-03-22T11:37:53;96727.53;;;11.49;73.57
26865;BME280;40618;51.166;10.322;2023-03-22T11:40:25;96717.88;;;11.52;74.15
26865;BME280;40618;51.166;10.322;2023-03-22T11:42:55;96732.72;;;11.68;74.20
26865;BME280;40618;51.166;10.322;2023-03-22T11:45:42;96742.44;;;11.82;74.23
26865;BME280;40618;51.166;10.322;2023-03-22T11:48:15;96736.63;;;11.96;73.64
26865;BME280;40618;51.166;10.322;2023-03-22T11:50:43;96735.81;;;11.95;72.91
26865;BME280;40618;51.166;10.322;2023-03-22T11:53:14;96731.44;;;11.96;72.62
26865;BME280;40618;51.166;10.322;2023-03-22T11:55:43;96725.47;;;11.94;72.68
26865;BME280;40618;51.166;10.322;2023-03-22T11:58:42;96721.28;;;12.10;72.42
26865;BME280;40618;51.166;10.322;2023-03-22T12:01:20;96723.50;;;12.18;72.37
26865;BME280;40618;51.166;10.322;2023-03-22T12:03:55;96723.44;;;12.19;72.03
26865;BME280;40618;51.166;10.322;2023-03-22T12:06:25;96725.47;;;12.13;72.21
26865;BME280;40618;51.166;10.322;2023-03-22T12:12:28;96707.16;;;12.16;71.66
26865;BME280;40618;51.166;10.322;2023-03-22T12:15:04;96704.19;;;12.24;71.49
26865;BME280;40618;51.166;10.322;2023-03-22T12:18:11;96703.88;;;12.30;71.39
26865;BME280;40618;51.166;10.322;2023-03-22T12:21:02;96709.06;;;12.30;71.64
26865;BME280;40618;51.166;10.322;2023-03-22T12:23:33;96702.81;;;12.34;71.29
26865;BME280;40618;51.166;10.322;2023-03-22T12:26:03;96699.31;;;12.35;71.92
26865;BME280;40618;51.166;10.322;2023-03-22T12:31:22;96682.50;;;12.42;71.15
26865;BME280;40618;51.166;10.322;2023-03-22T12:34:13;96698.16;;;12.41;71.10
26865;BME280;40618;51.166;10.322;2023-03-22T12:39:23;96690.75;;;12.50;70.99
26865;BME280;40618;51.166;10.322;2023-03-22T12:41:56;96692.22;;;12.56;70.89
26865;BME280;40618;51.166;10.322;2023-03-22T12:44:36;96686.09;;;12.57;70.29
26865;BME280;40618;51.166;10.322;2023-03-22T12:47:15;96690.84;;;12.49;70.31
26865;BME280;40618;51.166;10.322;2023-03-22T12:49:56;96686.41;;;12.51;70.63
26865;BME280;40618;51.166;10.322;2023-03-22T12:55:07;96680.78;;;12.60;70.29
26865;BME280;40618;51.166;10.322;2023-03-22T12:57:41;96680.81;;;12.59;70.26
26865;BME280;40618;51.166;10.322;2023-03-22T13:00:12;96683.41;;;12.59;70.38
26865;BME280;40618;51.166;10.322;2023-03-22T13:02:50;96690.28;;;12.60;70.06
26865;BME280;40618;51.166;10.322;2023-03-22T13:05:32;96692.28;;;12.55;70.19
26865;BME280;40618;51.166;10.322;2023-03-22T13:07:58;96680.28;;;12.52;70.07
26865;BME280;40618;51.166;10.322;2023-03-22T13:21:26;96678.38;;;12.73;69.34
26865;BME280;40618;51.166;10.322;2023-03-22T13:24:19;96673.00;;;12.76;69.15
26865;BME280;40618;51.166;10.322;2023-03-22T13:26:54;96693.13;;;12.73;69.01
26865;BME280;40618;51.166;10.322;2023-03-22T13:29:32;96691.59;;;12.68;68.77
26865;BME280;40618;51.166;10.322;2023-03-22T13:32:05;96683.19;;;12.63;68.80
26865;BME280;40618;51.166;10.322;2023-03-22T13:34:51;96690.09;;;12.64;68.65
26865;BME280;40618;51.166;10.322;2023-03-22T13:37:41;96685.03;;;12.61;68.86
26865;BME280;40618;51.166;10.322;2023-03-22T13:40:28;96684.88;;;12.64;68.74
26865;BME280;40618;51.166;10.322;2023-03-22T13:48:55;96682.41;;;12.61;68.29
26865;BME280;40618;51.166;10.322;2023-03-22T13:51:42;96685.88;;;12.62;68.25
26865;BME280;40618;51.166;10.322;2023-03-22T13:59:31;96676.97;;;12.83;67.98
26865;BME280;40618;51.166;10.322;2023-03-22T14:02:33;96678.56;;;12.86;67.96
26865;BME280;40618;51.166;10.322;2023-03-22T14:05:15;96661.25;;;12.86;67.59
26865;BME280;40618;51.166;10.322;2023-03-22T14:07:51;96659.56;;;12.85;67.72
26865;BME280;40618;51.166;10.322;2023-03-22T14:10:45;96659.03;;;12.79;67.63
26865;BME280;40618;51.166;10.322;2023-03-22T14:16:18;96668.28;;;12.67;67.44
26865;BME280;40618;51.166;10.322;2023-03-22T14:18:55;96666.63;;;12.66;67.02
26865;BME280;40618;51.166;10.322;2023-03-22T14:21:30;96665.84;;;12.64;67.33
26865;BME280;40618;51.166;10.322;2023-03-22T14:23:59;96667.53;;;12.65;67.22
26865;BME280;40618;51.166;10.322;2023-03-22T14:26:30;96675.25;;;12.66;67.32
26865;BME280;40618;51.166;10.322;2023-03-22T14:31:42;96667.22;;;12.71;67.77
26865;BME280;40618;51.166;10.322;2023-03-22T14:34:17;96662.63;;;12.76;67.68
26865;BME280;40618;51.166;10.322;2023-03-22T14:36:45;96652.22;;;12.76;67.46
26865;BME280;40618;51.166;10.322;2023-03-22T14:44:22;96641.44;;;12.84;67.62
26865;BME280;40618;51.166;10.322;2023-03-22T14:46:48;96644.88;;;12.84;67.59